Time,TemperatureF,DewpointF,PressureIn,WindDirection,WindDirectionDegrees,WindSpeedMPH,WindSpeedGustMPH,Humidity,HourlyPrecipIn,Conditions,Clouds,dailyrainin,SoftwareType,DateUTC
2013-06-02 07:24:00,38.5,16.3,30.02,ESE,105,0.0,-999.0,40,-99.99,,,0.00,meteohub,2013-06-02 13:24:00,
2013-06-02 07:25:00,38.7,17.1,30.02,ESE,104,0.0,-999.0,41,-99.99,,,0.00,meteohub,2013-06-02 13:25:00,
2013-06-02 07:26:00,38.7,16.3,30.02,ESE,104,0.0,-999.0,40,-99.99,,,0.00,meteohub,2013-06-02 13:26:00,
2013-06-02 07:27:00,39.0,16.7,30.02,East,96,0.0,-999.0,40,-99.99,,,0.00,meteohub,2013-06-02 13:27:00,
2013-06-02 07:32:00,39.2,16.3,30.02,NE,51,1.0,2.0,39,0.00,,,0.00,meteohub,2013-06-02 13:32:00,
2013-06-02 07:37:00,39.4,16.5,30.02,NE,40,1.0,3.0,39,0.00,,,0.00,meteohub,2013-06-02 13:37:00,
2013-06-02 07:42:00,39.9,17.6,30.01,NNE,25,2.0,3.0,40,0.00,,,0.00,meteohub,2013-06-02 13:42:00,
2013-06-02 07:48:00,40.5,16.9,30.01,NNE,13,1.0,3.0,38,0.00,,,0.00,meteohub,2013-06-02 13:48:00,
2013-06-02 07:53:00,41.2,17.4,30.01,NE,47,2.0,3.0,38,0.00,,,0.00,meteohub,2013-06-02 13:53:00,
2013-06-02 07:58:00,41.7,16.7,30.01,NNE,22,1.0,3.0,36,0.00,,,0.00,meteohub,2013-06-02 13:58:00,
2013-06-02 08:03:00,42.4,17.4,30.01,NNW,339,1.0,3.0,36,0.00,,,0.00,meteohub,2013-06-02 14:03:00,
2013-06-02 08:08:00,43.0,17.2,30.01,NNE,29,2.0,3.0,35,0.00,,,0.00,meteohub,2013-06-02 14:08:00,
2013-06-02 08:14:00,43.5,17.6,30.01,NE,43,2.0,4.0,35,0.00,,,0.00,meteohub,2013-06-02 14:14:00,
2013-06-02 08:19:00,44.2,17.6,30.01,NE,43,5.0,5.0,34,0.00,,,0.00,meteohub,2013-06-02 14:19:00,
2013-06-02 08:24:00,44.2,15.4,30.01,North,8,2.0,5.0,31,0.00,,,0.00,meteohub,2013-06-02 14:24:00,
2013-06-02 08:29:00,45.0,16.2,30.00,North,352,4.0,6.0,31,0.00,,,0.00,meteohub,2013-06-02 14:29:00,
2013-06-02 08:35:00,45.9,16.9,30.00,NE,49,4.0,6.0,31,0.00,,,0.00,meteohub,2013-06-02 14:35:00,
2013-06-02 08:40:00,46.6,16.9,29.99,NNE,23,2.0,5.0,30,0.00,,,0.00,meteohub,2013-06-02 14:40:00,
2013-06-02 08:45:00,47.1,16.5,29.99,NNE,12,5.0,7.0,29,0.00,,,0.00,meteohub,2013-06-02 14:45:00,
2013-06-02 08:50:00,47.7,16.2,29.98,NNW,340,4.0,8.0,28,0.00,,,0.00,meteohub,2013-06-02 14:50:00,
2013-06-02 08:56:00,48.0,18.1,29.98,NNW,344,5.0,8.0,30,0.00,,,0.00,meteohub,2013-06-02 14:56:00,
2013-06-02 09:01:00,48.9,18.0,29.98,NNW,343,5.0,8.0,29,0.00,,,0.00,meteohub,2013-06-02 15:01:00,
2013-06-02 09:06:00,49.6,17.1,29.97,NNE,14,5.0,8.0,27,0.00,,,0.00,meteohub,2013-06-02 15:06:00,
2013-06-02 09:11:00,50.2,16.5,29.97,NNW,340,5.0,8.0,26,0.00,,,0.00,meteohub,2013-06-02 15:11:00,
2013-06-02 09:17:00,50.5,16.9,29.97,NNE,26,7.0,9.0,26,0.00,,,0.00,meteohub,2013-06-02 15:17:00,
2013-06-02 09:22:00,50.9,17.2,29.97,NNW,341,6.0,9.0,26,0.00,,,0.00,meteohub,2013-06-02 15:22:00,
2013-06-02 09:27:00,51.4,15.8,29.96,North,11,4.0,9.0,24,0.00,,,0.00,meteohub,2013-06-02 15:27:00,
2013-06-02 09:32:00,52.0,18.1,29.96,NNE,27,5.0,9.0,26,0.00,,,0.00,meteohub,2013-06-02 15:32:00,
2013-06-02 09:37:00,52.9,17.1,29.96,NE,46,9.0,9.0,24,0.00,,,0.00,meteohub,2013-06-02 15:37:00,
2013-06-02 09:42:00,53.2,17.4,29.95,NE,44,2.0,9.0,24,0.00,,,0.00,meteohub,2013-06-02 15:42:00,
2013-06-02 09:47:00,53.4,17.6,29.95,NNE,23,3.0,9.0,24,0.00,,,0.00,meteohub,2013-06-02 15:47:00,
2013-06-02 09:52:00,54.0,17.1,29.94,NE,53,6.0,9.0,23,0.00,,,0.00,meteohub,2013-06-02 15:52:00,
2013-06-02 09:57:00,54.9,18.7,29.94,North,6,3.0,8.0,24,0.00,,,0.00,meteohub,2013-06-02 15:57:00,
2013-06-02 10:02:00,55.0,18.0,29.94,NNE,22,4.0,8.0,23,0.00,,,0.00,meteohub,2013-06-02 16:02:00,
2013-06-02 10:07:00,55.8,17.4,29.94,NE,39,4.0,8.0,22,0.00,,,0.00,meteohub,2013-06-02 16:07:00,
2013-06-02 10:12:00,56.3,18.0,29.93,NE,53,0.0,8.0,22,0.00,,,0.00,meteohub,2013-06-02 16:12:00,
2013-06-02 10:17:00,57.0,18.5,29.93,ENE,74,6.0,8.0,22,0.00,,,0.00,meteohub,2013-06-02 16:17:00,
2013-06-02 10:22:00,57.4,17.8,29.93,NNW,339,5.0,10.0,21,0.00,,,0.00,meteohub,2013-06-02 16:22:00,
2013-06-02 10:27:00,57.9,18.1,29.93,NE,53,6.0,10.0,21,0.00,,,0.00,meteohub,2013-06-02 16:27:00,
2013-06-02 10:32:00,59.2,20.3,29.92,North,6,10.0,10.0,22,0.00,,,0.00,meteohub,2013-06-02 16:32:00,
2013-06-02 10:37:00,59.5,19.6,29.92,NNE,20,6.0,14.0,21,0.00,,,0.00,meteohub,2013-06-02 16:37:00,
2013-06-02 10:42:00,59.7,16.2,29.92,NE,47,2.0,14.0,18,0.00,,,0.00,meteohub,2013-06-02 16:42:00,
2013-06-02 10:47:00,60.3,19.0,29.91,ENE,57,5.0,10.0,20,0.00,,,0.00,meteohub,2013-06-02 16:47:00,
2013-06-02 10:52:00,61.0,15.8,29.91,NNE,25,8.0,10.0,17,0.00,,,0.00,meteohub,2013-06-02 16:52:00,
2013-06-02 10:57:00,61.3,16.2,29.91,NE,37,6.0,10.0,17,0.00,,,0.00,meteohub,2013-06-02 16:57:00,
2013-06-02 11:02:00,62.2,15.4,29.91,NE,49,6.0,10.0,16,0.00,,,0.00,meteohub,2013-06-02 17:02:00,
2013-06-02 11:07:00,62.8,14.4,29.91,NE,43,6.0,12.0,15,0.00,,,0.00,meteohub,2013-06-02 17:07:00,
2013-06-02 11:12:00,63.0,18.9,29.91,NNE,27,9.0,12.0,18,0.00,,,0.00,meteohub,2013-06-02 17:12:00,
2013-06-02 11:17:00,63.1,16.2,29.90,North,0,7.0,12.0,16,0.00,,,0.00,meteohub,2013-06-02 17:17:00,
2013-06-02 11:22:00,63.5,16.5,29.90,NE,41,4.0,10.0,16,0.00,,,0.00,meteohub,2013-06-02 17:22:00,
2013-06-02 11:27:00,63.9,16.7,29.90,NNW,331,6.0,11.0,16,0.00,,,0.00,meteohub,2013-06-02 17:27:00,
2013-06-02 11:32:00,64.6,17.4,29.89,NNE,12,7.0,11.0,16,0.00,,,0.00,meteohub,2013-06-02 17:32:00,
2013-06-02 11:37:00,64.9,19.0,29.89,NE,56,11.0,11.0,17,0.00,,,0.00,meteohub,2013-06-02 17:37:00,
2013-06-02 11:42:00,64.8,17.4,29.88,NNE,20,6.0,12.0,16,0.00,,,0.00,meteohub,2013-06-02 17:42:00,
2013-06-02 11:47:00,65.1,19.2,29.88,ENE,66,1.0,12.0,17,0.00,,,0.00,meteohub,2013-06-02 17:47:00,
2013-06-02 11:52:00,65.7,16.7,29.88,NNW,344,2.0,12.0,15,0.00,,,0.00,meteohub,2013-06-02 17:52:00,
2013-06-02 11:57:00,66.6,17.4,29.88,NNE,13,5.0,10.0,15,0.00,,,0.00,meteohub,2013-06-02 17:57:00,
2013-06-02 12:02:00,66.6,17.4,29.87,NNE,30,3.0,12.0,15,0.00,,,0.00,meteohub,2013-06-02 18:02:00,
2013-06-02 12:07:00,67.3,19.6,29.87,ENE,60,6.0,12.0,16,0.00,,,0.00,meteohub,2013-06-02 18:07:00,
2013-06-02 12:12:00,67.8,18.5,29.86,NNE,30,7.0,11.0,15,0.00,,,0.00,meteohub,2013-06-02 18:12:00,
2013-06-02 12:17:00,68.4,18.9,29.86,NNW,343,6.0,11.0,15,0.00,,,0.00,meteohub,2013-06-02 18:17:00,
2013-06-02 12:22:00,68.7,17.6,29.86,NNW,331,8.0,10.0,14,0.00,,,0.00,meteohub,2013-06-02 18:22:00,
2013-06-02 12:27:00,69.3,16.3,29.85,NNE,25,8.0,10.0,13,0.00,,,0.00,meteohub,2013-06-02 18:27:00,
2013-06-02 12:32:00,69.4,19.8,29.85,NNE,32,8.0,11.0,15,0.00,,,0.00,meteohub,2013-06-02 18:32:00,
2013-06-02 12:37:00,69.4,16.5,29.84,NE,53,5.0,11.0,13,0.00,,,0.00,meteohub,2013-06-02 18:37:00,
2013-06-02 12:42:00,69.8,16.7,29.84,NE,50,5.0,11.0,13,0.00,,,0.00,meteohub,2013-06-02 18:42:00,
2013-06-02 12:47:00,70.5,15.4,29.84,ENE,68,6.0,11.0,12,0.00,,,0.00,meteohub,2013-06-02 18:47:00,
2013-06-02 12:52:00,70.9,15.8,29.83,NE,40,8.0,11.0,12,0.00,,,0.00,meteohub,2013-06-02 18:52:00,
2013-06-02 12:57:00,70.5,15.4,29.83,NW,322,2.0,11.0,12,0.00,,,0.00,meteohub,2013-06-02 18:57:00,
2013-06-02 13:02:00,70.9,13.8,29.83,East,86,7.0,11.0,11,0.00,,,0.00,meteohub,2013-06-02 19:02:00,
2013-06-02 13:07:00,70.9,15.8,29.83,NNE,22,8.0,11.0,12,0.00,,,0.00,meteohub,2013-06-02 19:07:00,
2013-06-02 13:12:00,70.7,13.6,29.83,NW,322,1.0,12.0,11,0.00,,,0.00,meteohub,2013-06-02 19:12:00,
2013-06-02 13:17:00,70.7,13.6,29.83,NNW,344,6.0,12.0,11,0.00,,,0.00,meteohub,2013-06-02 19:17:00,
2013-06-02 13:22:00,71.1,13.8,29.83,ENE,66,5.0,12.0,11,0.00,,,0.00,meteohub,2013-06-02 19:22:00,
2013-06-02 13:27:00,71.4,16.2,29.82,NE,45,7.0,10.0,12,0.00,,,0.00,meteohub,2013-06-02 19:27:00,
2013-06-02 13:32:00,72.7,12.9,29.81,South,180,9.0,11.0,10,0.00,,,0.00,meteohub,2013-06-02 19:32:00,
2013-06-02 13:37:00,72.3,14.9,29.82,ENE,72,5.0,14.0,11,0.00,,,0.00,meteohub,2013-06-02 19:37:00,
2013-06-02 13:42:00,72.0,12.4,29.81,West,274,1.0,14.0,10,0.00,,,0.00,meteohub,2013-06-02 19:42:00,
2013-06-02 13:47:00,71.6,14.4,29.81,NW,305,5.0,18.0,11,0.00,,,0.00,meteohub,2013-06-02 19:47:00,
2013-06-02 13:52:00,71.6,14.4,29.81,NW,314,1.0,18.0,11,0.00,,,0.00,meteohub,2013-06-02 19:52:00,
2013-06-02 13:57:00,72.1,14.7,29.81,SW,214,5.0,18.0,11,0.00,,,0.00,meteohub,2013-06-02 19:57:00,
2013-06-02 14:02:00,72.0,12.4,29.80,ESE,112,5.0,10.0,10,0.00,,,0.00,meteohub,2013-06-02 20:02:00,
2013-06-02 14:07:00,72.0,16.5,29.80,ESE,110,3.0,8.0,12,0.00,,,0.00,meteohub,2013-06-02 20:07:00,
2013-06-02 14:12:00,71.8,16.5,29.80,North,356,12.0,12.0,12,0.00,,,0.00,meteohub,2013-06-02 20:12:00,
2013-06-02 14:17:00,71.6,16.3,29.80,NNW,327,0.0,14.0,12,0.00,,,0.00,meteohub,2013-06-02 20:17:00,
2013-06-02 14:22:00,72.3,14.9,29.79,NW,325,7.0,14.0,11,0.00,,,0.00,meteohub,2013-06-02 20:22:00,
2013-06-02 14:27:00,72.7,17.1,29.79,West,275,5.0,17.0,12,0.00,,,0.00,meteohub,2013-06-02 20:27:00,
2013-06-02 14:32:00,72.7,12.9,29.78,South,169,7.0,17.0,10,0.00,,,0.00,meteohub,2013-06-02 20:32:00,
2013-06-02 14:37:00,73.6,17.8,29.78,ESE,120,5.0,17.0,12,0.00,,,0.00,meteohub,2013-06-02 20:37:00,
2013-06-02 14:42:00,73.4,15.6,29.78,ENE,77,3.0,8.0,11,0.00,,,0.00,meteohub,2013-06-02 20:42:00,
2013-06-02 14:47:00,73.6,15.8,29.78,ESE,118,3.0,8.0,11,0.00,,,0.00,meteohub,2013-06-02 20:47:00,
2013-06-02 14:52:00,73.8,18.0,29.78,North,5,1.0,8.0,12,0.00,,,0.00,meteohub,2013-06-02 20:52:00,
2013-06-02 14:57:00,72.9,15.3,29.77,WSW,240,1.0,7.0,11,0.00,,,0.00,meteohub,2013-06-02 20:57:00,
2013-06-02 15:02:00,72.1,14.7,29.77,WNW,289,3.0,10.0,11,0.00,,,0.00,meteohub,2013-06-02 21:02:00,
2013-06-02 15:07:00,72.3,16.9,29.77,NNW,338,7.0,10.0,12,0.00,,,0.00,meteohub,2013-06-02 21:07:00,
2013-06-02 15:12:00,73.2,19.4,29.77,NW,316,10.0,10.0,13,0.00,,,0.00,meteohub,2013-06-02 21:12:00,
2013-06-02 15:17:00,73.4,17.8,29.77,NW,323,12.0,19.0,12,0.00,,,0.00,meteohub,2013-06-02 21:17:00,
2013-06-02 15:22:00,73.2,19.4,29.77,North,7,14.0,19.0,13,0.00,,,0.00,meteohub,2013-06-02 21:22:00,
2013-06-02 15:27:00,72.1,16.7,29.76,NE,53,1.0,19.0,12,0.00,,,0.00,meteohub,2013-06-02 21:27:00,
2013-06-02 15:38:00,73.0,17.4,29.76,ENE,58,4.0,19.0,12,0.00,,,0.00,meteohub,2013-06-02 21:38:00,
2013-06-02 15:43:00,73.6,17.8,29.76,NNW,335,8.0,19.0,12,0.00,,,0.00,meteohub,2013-06-02 21:43:00,
2013-06-02 15:48:00,73.2,19.4,29.75,NNW,331,5.0,19.0,13,0.00,,,0.00,meteohub,2013-06-02 21:48:00,
2013-06-02 15:53:00,72.9,17.2,29.76,WSW,240,4.0,12.0,12,0.00,,,0.00,meteohub,2013-06-02 21:53:00,
2013-06-02 15:59:00,72.0,18.5,29.76,NNW,338,7.0,12.0,13,0.00,,,0.00,meteohub,2013-06-02 21:59:00,
2013-06-02 16:04:00,70.9,17.6,29.76,North,356,8.0,12.0,13,0.00,,,0.00,meteohub,2013-06-02 22:04:00,
2013-06-02 16:09:00,70.5,17.2,29.76,SSE,160,1.0,16.0,13,0.00,,,0.00,meteohub,2013-06-02 22:09:00,
2013-06-02 16:14:00,70.3,18.9,29.77,SSE,163,6.0,16.0,14,0.00,,,0.00,meteohub,2013-06-02 22:14:00,
2013-06-02 16:20:00,70.0,21.7,29.77,West,279,7.0,14.0,16,0.00,,,0.00,meteohub,2013-06-02 22:20:00,
2013-06-02 16:25:00,69.3,21.2,29.78,SE,145,5.0,19.0,16,0.00,,,0.00,meteohub,2013-06-02 22:25:00,
2013-06-02 16:30:00,68.9,22.3,29.76,SSW,193,4.0,19.0,17,0.00,,,0.00,meteohub,2013-06-02 22:30:00,
2013-06-02 16:35:00,68.5,21.9,29.76,SW,219,0.0,19.0,17,0.00,,,0.00,meteohub,2013-06-02 22:35:00,
2013-06-02 16:41:00,68.2,24.3,29.76,SSE,153,11.0,18.0,19,0.00,,,0.00,meteohub,2013-06-02 22:41:00,
2013-06-02 16:46:00,67.5,25.0,29.76,SSE,151,8.0,18.0,20,0.00,,,0.00,meteohub,2013-06-02 22:46:00,
2013-06-02 16:51:00,66.9,24.6,29.76,South,176,8.0,18.0,20,0.00,,,0.00,meteohub,2013-06-02 22:51:00,
2013-06-02 16:56:00,66.6,26.6,29.76,SSE,159,14.0,15.0,22,0.00,,,0.00,meteohub,2013-06-02 22:56:00,
2013-06-02 17:02:00,66.2,25.2,29.77,SE,134,9.0,23.0,21,0.00,,,0.00,meteohub,2013-06-02 23:02:00,
2013-06-02 17:07:00,65.7,25.7,29.78,SSE,155,9.0,23.0,22,0.00,,,0.00,meteohub,2013-06-02 23:07:00,
2013-06-02 17:12:00,65.1,25.3,29.78,SSE,160,9.0,23.0,22,0.00,,,0.00,meteohub,2013-06-02 23:12:00,
2013-06-02 17:17:00,64.8,27.1,29.77,SSE,162,8.0,19.0,24,0.00,,,0.00,meteohub,2013-06-02 23:17:00,
2013-06-02 17:22:00,64.6,27.0,29.77,SE,132,6.0,19.0,24,0.00,,,0.00,meteohub,2013-06-02 23:22:00,
2013-06-02 17:27:00,64.8,27.1,29.76,ESE,111,16.0,17.0,24,0.00,,,0.00,meteohub,2013-06-02 23:27:00,
2013-06-02 17:32:00,64.8,27.1,29.76,ESE,119,9.0,17.0,24,0.00,,,0.00,meteohub,2013-06-02 23:32:00,
2013-06-02 17:37:00,64.6,28.0,29.77,SE,143,6.0,17.0,25,0.00,,,0.00,meteohub,2013-06-02 23:37:00,
2013-06-02 17:42:00,64.6,28.0,29.77,SSE,163,2.0,17.0,25,0.00,,,0.00,meteohub,2013-06-02 23:42:00,
2013-06-02 17:47:00,64.8,27.1,29.77,SE,136,4.0,11.0,24,0.00,,,0.00,meteohub,2013-06-02 23:47:00,
2013-06-02 17:52:00,65.3,28.6,29.76,South,187,8.0,11.0,25,0.00,,,0.00,meteohub,2013-06-02 23:52:00,
2013-06-02 17:57:00,66.2,28.4,29.76,SSE,148,6.0,10.0,24,0.00,,,0.00,meteohub,2013-06-02 23:57:00,
2013-06-02 18:02:00,66.9,27.9,29.75,SSE,158,2.0,10.0,23,0.00,,,0.00,meteohub,2013-06-03 00:02:00,
2013-06-02 18:07:00,66.7,27.7,29.75,SW,217,4.0,10.0,23,0.00,,,0.00,meteohub,2013-06-03 00:07:00,
2013-06-02 18:12:00,66.7,27.7,29.75,SSW,198,1.0,10.0,23,0.00,,,0.00,meteohub,2013-06-03 00:12:00,
2013-06-02 18:17:00,66.6,26.6,29.75,SE,143,11.0,11.0,22,0.00,,,0.00,meteohub,2013-06-03 00:17:00,
2013-06-02 18:22:00,66.0,28.2,29.75,SSE,163,9.0,14.0,24,0.00,,,0.00,meteohub,2013-06-03 00:22:00,
2013-06-02 18:27:00,65.7,27.9,29.75,SSE,153,10.0,14.0,24,0.00,,,0.00,meteohub,2013-06-03 00:27:00,
2013-06-02 18:32:00,65.3,28.6,29.75,SSE,159,8.0,14.0,25,0.00,,,0.00,meteohub,2013-06-03 00:32:00,
2013-06-02 18:37:00,65.5,28.8,29.75,SSE,163,9.0,13.0,25,0.00,,,0.00,meteohub,2013-06-03 00:37:00,
2013-06-02 18:42:00,65.7,28.9,29.73,SSE,155,9.0,19.0,25,0.00,,,0.00,meteohub,2013-06-03 00:42:00,
2013-06-02 18:47:00,65.5,28.8,29.73,South,180,8.0,19.0,25,0.00,,,0.00,meteohub,2013-06-03 00:47:00,
2013-06-02 18:52:00,65.1,28.4,29.73,South,183,3.0,19.0,25,0.00,,,0.00,meteohub,2013-06-03 00:52:00,
2013-06-02 18:57:00,64.9,28.2,29.73,SW,232,4.0,12.0,25,0.00,,,0.00,meteohub,2013-06-03 00:57:00,
2013-06-02 19:02:00,64.6,28.9,29.73,South,188,6.0,11.0,26,0.00,,,0.00,meteohub,2013-06-03 01:02:00,
2013-06-02 19:07:00,64.2,28.6,29.73,SSW,195,3.0,10.0,26,0.00,,,0.00,meteohub,2013-06-03 01:07:00,
2013-06-02 19:12:00,64.0,28.4,29.73,SSE,165,3.0,7.0,26,0.00,,,0.00,meteohub,2013-06-03 01:12:00,
2013-06-02 19:17:00,63.9,28.2,29.73,WSW,257,2.0,7.0,26,0.00,,,0.00,meteohub,2013-06-03 01:17:00,
2013-06-02 19:22:00,63.7,29.1,29.73,SSW,195,3.0,7.0,27,0.00,,,0.00,meteohub,2013-06-03 01:22:00,
2013-06-02 19:27:00,63.5,28.9,29.72,WSW,242,2.0,7.0,27,0.00,,,0.00,meteohub,2013-06-03 01:27:00,
2013-06-02 19:32:00,63.0,29.3,29.72,WSW,253,0.0,6.0,28,0.00,,,0.00,meteohub,2013-06-03 01:32:00,
2013-06-02 19:37:00,61.3,29.7,29.73,West,268,2.0,6.0,30,0.00,,,0.00,meteohub,2013-06-03 01:37:00,
2013-06-02 19:42:00,60.1,29.3,29.73,WSW,252,1.0,4.0,31,0.00,,,0.00,meteohub,2013-06-03 01:42:00,
2013-06-02 19:47:00,59.2,30.0,29.73,West,259,2.0,3.0,33,0.00,,,0.00,meteohub,2013-06-03 01:47:00,
2013-06-02 19:52:00,58.5,29.5,29.73,WSW,248,2.0,3.0,33,0.00,,,0.00,meteohub,2013-06-03 01:52:00,
2013-06-02 19:57:00,57.9,29.7,29.73,WSW,248,1.0,3.0,34,0.00,,,0.00,meteohub,2013-06-03 01:57:00,
2013-06-02 20:02:00,57.2,30.6,29.73,West,259,1.0,3.0,36,0.00,,,0.00,meteohub,2013-06-03 02:02:00,
2013-06-02 20:07:00,57.2,29.1,29.73,WSW,250,1.0,4.0,34,0.00,,,0.00,meteohub,2013-06-03 02:07:00,
2013-06-02 20:12:00,56.8,28.8,29.74,WSW,257,2.0,4.0,34,0.00,,,0.00,meteohub,2013-06-03 02:12:00,
2013-06-02 20:17:00,56.5,28.4,29.74,West,269,1.0,4.0,34,0.00,,,0.00,meteohub,2013-06-03 02:17:00,
2013-06-02 20:22:00,56.1,26.6,29.74,West,262,3.0,3.0,32,0.00,,,0.00,meteohub,2013-06-03 02:22:00,
2013-06-02 20:27:00,56.1,26.6,29.74,WSW,252,1.0,4.0,32,0.00,,,0.00,meteohub,2013-06-03 02:27:00,
2013-06-02 20:32:00,56.1,26.6,29.74,WSW,256,2.0,4.0,32,0.00,,,0.00,meteohub,2013-06-03 02:32:00,
2013-06-02 20:37:00,56.1,25.2,29.74,WSW,253,2.0,3.0,30,0.00,,,0.00,meteohub,2013-06-03 02:37:00,
2013-06-02 20:42:00,56.1,25.2,29.74,WSW,240,1.0,3.0,30,0.00,,,0.00,meteohub,2013-06-03 02:42:00,
2013-06-02 20:48:00,55.8,26.4,29.75,SW,232,1.0,3.0,32,0.00,,,0.00,meteohub,2013-06-03 02:48:00,
2013-06-02 20:53:00,55.2,25.2,29.75,WSW,250,0.0,3.0,31,0.00,,,0.00,meteohub,2013-06-03 02:53:00,
2013-06-02 20:58:00,54.9,25.5,29.75,South,169,3.0,3.0,32,0.00,,,0.00,meteohub,2013-06-03 02:58:00,
2013-06-02 21:04:00,54.9,25.5,29.75,West,278,2.0,6.0,32,0.00,,,0.00,meteohub,2013-06-03 03:04:00,
2013-06-02 21:09:00,54.5,25.2,29.75,West,266,1.0,6.0,32,0.00,,,0.00,meteohub,2013-06-03 03:09:00,
2013-06-02 21:14:00,54.0,24.8,29.76,West,279,3.0,6.0,32,0.00,,,0.00,meteohub,2013-06-03 03:14:00,
2013-06-02 21:20:00,53.8,24.6,29.76,West,276,3.0,4.0,32,0.00,,,0.00,meteohub,2013-06-03 03:20:00,
2013-06-02 21:25:00,53.4,25.7,29.76,WSW,253,3.0,3.0,34,0.00,,,0.00,meteohub,2013-06-03 03:25:00,
2013-06-02 21:30:00,53.1,25.3,29.76,West,266,0.0,3.0,34,0.00,,,0.00,meteohub,2013-06-03 03:30:00,
2013-06-02 21:36:00,52.9,25.3,29.77,West,274,0.0,3.0,34,0.00,,,0.00,meteohub,2013-06-03 03:36:00,
2013-06-02 21:41:00,52.9,26.6,29.77,WSW,258,2.0,3.0,36,0.00,,,0.00,meteohub,2013-06-03 03:41:00,
2013-06-02 21:46:00,52.5,26.2,29.77,WSW,252,1.0,3.0,36,0.00,,,0.00,meteohub,2013-06-03 03:46:00,
2013-06-02 21:52:00,52.5,26.2,29.78,WSW,249,1.0,3.0,36,0.00,,,0.00,meteohub,2013-06-03 03:52:00,
2013-06-02 21:57:00,52.5,25.7,29.78,WSW,255,1.0,3.0,35,0.00,,,0.00,meteohub,2013-06-03 03:57:00,
2013-06-02 22:01:00,52.2,26.6,29.78,WSW,257,2.0,3.0,37,0.00,,,0.00,meteohub,2013-06-03 04:01:00,
2013-06-02 22:02:00,52.0,26.6,29.78,WSW,252,2.0,3.0,37,0.00,,,0.00,meteohub,2013-06-03 04:02:00,
2013-06-02 22:04:00,51.8,26.4,29.78,WSW,240,0.0,3.0,37,0.00,,,0.00,meteohub,2013-06-03 04:04:00,
2013-06-02 22:09:00,51.3,25.9,29.78,WSW,250,2.0,3.0,37,0.00,,,0.00,meteohub,2013-06-03 04:09:00,
2013-06-02 22:15:00,50.7,26.1,29.78,West,260,2.0,3.0,38,0.00,,,0.00,meteohub,2013-06-03 04:15:00,
2013-06-02 22:20:00,50.2,26.2,29.78,WSW,248,2.0,3.0,39,0.00,,,0.00,meteohub,2013-06-03 04:20:00,
2013-06-02 22:25:00,49.8,25.9,29.78,SW,235,3.0,3.0,39,0.00,,,0.00,meteohub,2013-06-03 04:25:00,
2013-06-02 22:31:00,50.2,26.2,29.78,WSW,256,3.0,4.0,39,0.00,,,0.00,meteohub,2013-06-03 04:31:00,
2013-06-02 22:36:00,50.5,25.9,29.78,WSW,252,2.0,6.0,38,0.00,,,0.00,meteohub,2013-06-03 04:36:00,
2013-06-02 22:41:00,49.8,25.2,29.78,West,262,1.0,6.0,38,0.00,,,0.00,meteohub,2013-06-03 04:41:00,
2013-06-02 22:46:00,48.7,24.8,29.79,West,260,2.0,6.0,39,0.00,,,0.00,meteohub,2013-06-03 04:46:00,
2013-06-02 22:52:00,48.4,24.6,29.79,WSW,255,1.0,4.0,39,0.00,,,0.00,meteohub,2013-06-03 04:52:00,
2013-06-02 22:57:00,48.0,24.8,29.78,WSW,249,3.0,3.0,40,0.00,,,0.00,meteohub,2013-06-03 04:57:00,
2013-06-02 23:02:00,48.0,24.8,29.78,WSW,243,3.0,3.0,40,0.00,,,0.00,meteohub,2013-06-03 05:02:00,
2013-06-02 23:07:00,48.0,24.8,29.79,WSW,253,3.0,3.0,40,0.00,,,0.00,meteohub,2013-06-03 05:07:00,
2013-06-02 23:12:00,48.2,25.5,29.78,SSW,204,1.0,4.0,41,0.00,,,0.00,meteohub,2013-06-03 05:12:00,
2013-06-02 23:17:00,48.6,25.3,29.78,WSW,244,2.0,4.0,40,0.00,,,0.00,meteohub,2013-06-03 05:17:00,
2013-06-02 23:22:00,48.6,25.3,29.78,WSW,253,2.0,4.0,40,0.00,,,0.00,meteohub,2013-06-03 05:22:00,
2013-06-02 23:27:00,47.8,24.6,29.78,SSW,205,2.0,4.0,40,0.00,,,0.00,meteohub,2013-06-03 05:27:00,
2013-06-02 23:32:00,47.8,24.6,29.78,West,260,2.0,4.0,40,0.00,,,0.00,meteohub,2013-06-03 05:32:00,
2013-06-02 23:37:00,47.3,24.3,29.78,WSW,253,1.0,4.0,40,0.00,,,0.00,meteohub,2013-06-03 05:37:00,
2013-06-02 23:42:00,46.9,23.9,29.78,West,259,2.0,4.0,40,0.00,,,0.00,meteohub,2013-06-03 05:42:00,
2013-06-02 23:47:00,46.9,24.4,29.78,WSW,250,1.0,4.0,41,0.00,,,0.00,meteohub,2013-06-03 05:47:00,
2013-06-02 23:52:00,47.8,24.6,29.78,West,269,2.0,4.0,40,0.00,,,0.00,meteohub,2013-06-03 05:52:00,
2013-06-02 23:57:00,47.8,24.6,29.78,WSW,243,0.0,4.0,40,0.00,,,0.00,meteohub,2013-06-03 05:57:00,